createdAt,value
2022-10-17T00:01:02.748Z,13.90
2022-10-17T00:03:29.421Z,12.32
2022-10-17T00:05:58.426Z,14.25
2022-10-17T00:08:25.475Z,16.08
2022-10-17T00:11:01.694Z,13.52
2022-10-17T00:13:28.706Z,15.85
2022-10-17T00:15:58.180Z,13.25
2022-10-17T00:18:26.631Z,14.38
2022-10-17T00:20:54.632Z,13.57
2022-10-17T00:23:22.664Z,14.60
2022-10-17T00:26:01.487Z,14.93
2022-10-17T00:28:29.309Z,13.82
2022-10-17T00:31:03.040Z,14.60
2022-10-17T00:33:31.221Z,12.35
2022-10-17T00:36:08.548Z,20.33
2022-10-17T00:38:38.378Z,13.00
2022-10-17T00:41:07.178Z,22.90
2022-10-17T00:44:29.354Z,13.52
2022-10-17T00:46:58.670Z,14.50
2022-10-17T00:49:29.911Z,12.82
2022-10-17T00:52:01.743Z,10.43
2022-10-17T00:57:01.687Z,10.65
2022-10-17T00:59:29.888Z,11.00
2022-10-17T01:02:13.601Z,14.15
2022-10-17T01:04:44.300Z,14.32
2022-10-17T01:07:12.674Z,10.85
2022-10-17T01:09:41.565Z,12.85
2022-10-17T01:12:30.803Z,15.98
2022-10-17T01:15:27.535Z,12.70
2022-10-17T01:18:15.245Z,14.73
2022-10-17T01:21:17.951Z,14.38
2022-10-17T01:24:18.070Z,12.95
2022-10-17T01:27:09.253Z,12.02
2022-10-17T01:29:53.948Z,15.77
2022-10-17T01:32:56.418Z,10.65
2022-10-17T01:35:47.184Z,9.73
2022-10-17T01:38:21.098Z,11.98
2022-10-17T01:41:17.896Z,14.60
2022-10-17T01:43:53.852Z,9.65
2022-10-17T01:46:27.041Z,14.07
2022-10-17T01:48:58.276Z,11.20
2022-10-17T01:51:36.895Z,11.18
2022-10-17T01:54:24.404Z,13.93
2022-10-17T01:56:58.499Z,16.40
2022-10-17T01:59:32.005Z,13.13
2022-10-17T02:02:01.807Z,11.98
2022-10-17T02:04:29.209Z,12.63
2022-10-17T02:06:56.997Z,14.82
2022-10-17T02:09:29.459Z,17.48
2022-10-17T02:12:01.764Z,8.55
2022-10-17T02:14:37.373Z,9.93
2022-10-17T02:17:25.204Z,11.05
2022-10-17T02:20:24.718Z,10.48
2022-10-17T02:23:21.501Z,13.40
2022-10-17T02:25:47.998Z,11.90
2022-10-17T02:28:14.504Z,9.63
2022-10-17T02:31:06.919Z,14.50
2022-10-17T02:33:39.351Z,14.18
2022-10-17T02:36:11.881Z,13.43
2022-10-17T02:38:40.458Z,11.10
2022-10-17T02:41:11.605Z,11.02
2022-10-17T02:43:39.352Z,13.82
2022-10-17T02:46:08.054Z,12.75
2022-10-17T02:48:37.365Z,12.60
2022-10-17T02:51:20.973Z,13.07
2022-10-17T02:53:59.493Z,10.88
2022-10-17T02:56:29.136Z,9.57
2022-10-17T02:58:59.040Z,16.17
2022-10-17T03:01:26.291Z,11.93
2022-10-17T03:04:07.342Z,11.75
2022-10-17T03:06:33.995Z,14.63
2022-10-17T03:09:00.577Z,11.82
2022-10-17T03:11:27.203Z,11.45
2022-10-17T03:13:53.805Z,15.73
2022-10-17T03:16:20.414Z,17.80
2022-10-17T03:18:49.377Z,13.90
2022-10-17T03:21:16.953Z,11.38
2022-10-17T03:23:43.520Z,17.48
2022-10-17T03:26:10.380Z,10.73
2022-10-17T03:28:37.053Z,12.98
2022-10-17T03:31:12.958Z,11.23
2022-10-17T03:33:39.725Z,12.57
2022-10-17T03:36:08.398Z,8.82
2022-10-17T03:38:35.655Z,10.13
2022-10-17T03:41:03.024Z,11.02
2022-10-17T03:43:30.443Z,13.55
2022-10-17T03:46:01.510Z,15.35
2022-10-17T03:48:29.867Z,10.45
2022-10-17T03:51:09.802Z,13.07
2022-10-17T03:53:36.450Z,15.60
2022-10-17T03:56:20.881Z,12.38
2022-10-17T03:58:47.756Z,15.75
2022-10-17T04:01:16.565Z,11.95
2022-10-17T04:03:43.938Z,16.05
2022-10-17T04:06:13.295Z,14.73
2022-10-17T04:08:40.220Z,13.40
2022-10-17T04:11:08.440Z,12.40
2022-10-17T04:13:36.090Z,11.13
2022-10-17T04:16:06.003Z,12.07
2022-10-17T04:18:33.540Z,15.90
2022-10-17T04:21:07.416Z,10.38
2022-10-17T04:23:34.378Z,14.95
2022-10-17T04:26:03.438Z,13.13
2022-10-17T04:28:30.716Z,13.98
2022-10-17T04:31:06.340Z,10.70
2022-10-17T04:33:34.254Z,13.13
2022-10-17T04:36:02.886Z,19.77
2022-10-17T04:38:30.747Z,15.15
2022-10-17T04:40:58.744Z,11.70
2022-10-17T04:43:25.321Z,17.00
2022-10-17T04:45:51.960Z,22.73
2022-10-17T04:48:18.551Z,12.85
2022-10-17T04:51:01.346Z,15.90
2022-10-17T04:53:28.245Z,13.23
2022-10-17T04:55:54.898Z,13.73
2022-10-17T04:58:21.514Z,20.73
2022-10-17T05:00:48.211Z,13.70
2022-10-17T05:03:15.177Z,16.65
2022-10-17T05:05:42.514Z,16.15
2022-10-17T05:08:10.793Z,12.13
2022-10-17T05:10:43.143Z,13.80
2022-10-17T05:13:10.762Z,12.63
2022-10-17T05:15:38.180Z,12.85
2022-10-17T05:18:06.198Z,15.20
2022-10-17T05:20:33.512Z,19.45
2022-10-17T05:23:00.663Z,16.40
2022-10-17T05:25:27.247Z,16.20
2022-10-17T05:27:54.495Z,20.02
2022-10-17T05:30:21.106Z,15.48
2022-10-17T05:32:47.720Z,14.70
2022-10-17T05:35:14.363Z,14.20
2022-10-17T05:37:41.087Z,12.35
2022-10-17T05:40:08.608Z,16.02
2022-10-17T05:42:35.234Z,17.67
2022-10-17T05:45:01.829Z,21.77
2022-10-17T05:47:28.783Z,14.85
2022-10-17T05:49:55.661Z,15.75
2022-10-17T05:52:22.274Z,15.77
2022-10-17T05:54:48.898Z,15.43
2022-10-17T05:57:15.513Z,13.63
2022-10-17T05:59:42.268Z,14.77
2022-10-17T06:02:12.532Z,18.70
2022-10-17T06:04:41.074Z,23.20
2022-10-17T06:07:07.692Z,20.25
2022-10-17T06:09:34.398Z,14.80
2022-10-17T06:12:00.975Z,13.45
2022-10-17T06:14:27.664Z,17.88
2022-10-17T06:16:54.209Z,13.25
2022-10-17T06:19:20.765Z,14.55
2022-10-17T06:21:47.323Z,17.10
2022-10-17T06:24:13.983Z,20.38
2022-10-17T06:26:40.535Z,12.52
2022-10-17T06:29:07.298Z,14.40
2022-10-17T06:31:34.007Z,14.63
2022-10-17T06:34:00.575Z,14.95
2022-10-17T06:36:27.241Z,14.27
2022-10-17T06:38:53.805Z,15.02
2022-10-17T06:41:20.473Z,16.77
2022-10-17T06:43:47.643Z,10.52
2022-10-17T06:46:16.344Z,11.80
2022-10-17T06:48:43.410Z,12.50
2022-10-17T06:51:11.474Z,12.32
2022-10-17T06:53:40.053Z,14.60
2022-10-17T06:56:08.378Z,10.13
2022-10-17T06:58:39.139Z,18.08
2022-10-17T07:01:11.901Z,15.25
2022-10-17T07:03:39.221Z,12.30
2022-10-17T07:06:06.050Z,16.67
2022-10-17T07:08:32.709Z,12.23
2022-10-17T07:10:59.441Z,11.65
2022-10-17T07:13:26.049Z,11.73
2022-10-17T07:15:52.719Z,12.02
2022-10-17T07:18:19.345Z,14.52
2022-10-17T07:20:54.111Z,16.02
2022-10-17T07:23:21.178Z,14.10
2022-10-17T07:25:47.782Z,10.13
2022-10-17T07:28:16.056Z,15.00
2022-10-17T07:30:43.185Z,18.00
2022-10-17T07:33:09.734Z,16.70
2022-10-17T07:35:38.238Z,17.40
2022-10-17T07:38:04.853Z,13.57
2022-10-17T07:40:35.243Z,12.70
2022-10-17T07:43:06.122Z,14.48
2022-10-17T07:45:35.288Z,11.33
2022-10-17T07:48:05.375Z,16.40
2022-10-17T07:50:34.280Z,18.13
2022-10-17T07:53:09.833Z,13.35
2022-10-17T07:55:49.531Z,13.77
2022-10-17T07:58:21.603Z,14.30
2022-10-17T08:00:53.478Z,21.38
2022-10-17T08:03:21.557Z,18.55
2022-10-17T08:05:48.213Z,11.77
2022-10-17T08:08:16.458Z,11.48
2022-10-17T08:10:45.923Z,9.93
2022-10-17T08:13:12.490Z,19.13
2022-10-17T08:15:40.827Z,9.90
2022-10-17T08:18:10.354Z,9.57
2022-10-17T08:20:55.597Z,8.68
2022-10-17T08:23:26.341Z,12.80
2022-10-17T08:25:55.029Z,14.10
2022-10-17T08:28:23.774Z,9.50
2022-10-17T08:30:55.597Z,10.75
2022-10-17T08:35:54.148Z,11.13
2022-10-17T08:38:27.548Z,9.30
2022-10-17T08:41:02.892Z,8.05
2022-10-17T08:44:00.820Z,10.25
2022-10-17T08:46:46.266Z,8.02
2022-10-17T08:49:42.204Z,6.75
2022-10-17T08:52:40.543Z,7.85
2022-10-17T08:55:32.367Z,10.32
2022-10-17T08:58:00.430Z,9.15
2022-10-17T09:00:31.674Z,7.20
2022-10-17T09:03:41.501Z,10.95
2022-10-17T09:06:33.000Z,10.20
2022-10-17T09:09:37.337Z,9.55
2022-10-17T09:12:36.081Z,9.05
2022-10-17T09:15:32.277Z,8.52
2022-10-17T09:18:17.606Z,9.27
2022-10-17T09:21:13.791Z,13.93
2022-10-17T09:24:09.656Z,12.70
2022-10-17T09:26:45.865Z,12.60
2022-10-17T09:29:43.619Z,11.18
2022-10-17T09:32:25.259Z,10.55
2022-10-17T09:34:55.292Z,11.60
2022-10-17T09:37:31.618Z,14.55
2022-10-17T09:39:59.964Z,10.25
2022-10-17T09:42:29.875Z,8.18
2022-10-17T09:45:31.856Z,9.52
2022-10-17T09:48:22.772Z,9.45
2022-10-17T09:51:02.532Z,14.90
2022-10-17T09:54:01.206Z,8.63
2022-10-17T09:56:31.298Z,10.48
2022-10-17T09:59:05.076Z,16.60
2022-10-17T10:01:35.415Z,8.82
2022-10-17T10:04:18.453Z,10.15
2022-10-17T10:07:10.312Z,12.93
2022-10-17T10:12:18.483Z,7.35
2022-10-17T10:14:47.345Z,9.77
2022-10-17T10:17:47.539Z,6.43
2022-10-17T10:20:36.070Z,10.68
2022-10-17T10:23:15.233Z,8.48
2022-10-17T10:26:06.290Z,11.00
2022-10-17T10:28:40.041Z,11.20
2022-10-17T10:31:12.157Z,8.55
2022-10-17T10:33:56.854Z,9.15
2022-10-17T10:36:25.422Z,10.20
2022-10-17T10:39:01.241Z,10.02
2022-10-17T10:41:48.079Z,14.93
2022-10-17T10:44:20.704Z,6.55
2022-10-17T10:46:50.395Z,10.38
2022-10-17T10:49:32.730Z,10.45
2022-10-17T10:52:10.986Z,11.25
2022-10-17T10:54:50.486Z,12.07
2022-10-17T10:57:27.114Z,10.43
2022-10-17T11:00:21.643Z,7.18
2022-10-17T11:03:35.651Z,8.02
2022-10-17T11:06:20.894Z,8.23
2022-10-17T11:09:28.832Z,9.98
2022-10-17T11:12:20.840Z,7.88
2022-10-17T11:15:19.023Z,11.50
2022-10-17T11:18:05.585Z,9.82
2022-10-17T11:21:00.916Z,15.40
2022-10-17T11:23:51.133Z,10.18
2022-10-17T11:27:10.509Z,14.85
2022-10-17T11:29:42.812Z,6.00
2022-10-17T11:32:19.627Z,10.65
2022-10-17T11:34:49.935Z,10.30
2022-10-17T11:37:23.079Z,10.55
2022-10-17T11:40:31.323Z,11.93
2022-10-17T11:43:02.311Z,6.88
2022-10-17T11:45:35.173Z,7.30
2022-10-17T11:48:17.895Z,9.02
2022-10-17T11:53:47.814Z,9.93
2022-10-17T11:56:20.175Z,12.98
2022-10-17T11:58:58.649Z,11.63
2022-10-17T12:01:42.161Z,9.07
2022-10-17T12:04:30.792Z,7.60
2022-10-17T12:07:25.690Z,14.65
2022-10-17T12:10:21.654Z,12.23
2022-10-17T12:12:49.536Z,10.57
2022-10-17T12:15:23.501Z,13.43
2022-10-17T12:18:03.161Z,5.03
2022-10-17T12:20:35.564Z,11.85
2022-10-17T12:23:13.308Z,11.63
2022-10-17T12:25:57.130Z,6.75
2022-10-17T12:28:38.365Z,9.82
2022-10-17T12:31:13.110Z,9.93
2022-10-17T12:33:39.698Z,9.38
2022-10-17T12:36:31.116Z,6.90
2022-10-17T12:39:03.586Z,9.82
2022-10-17T12:41:38.811Z,8.35
2022-10-17T12:44:14.739Z,9.20
2022-10-17T12:46:45.869Z,7.93
2022-10-17T12:49:24.584Z,10.48
2022-10-17T12:52:20.772Z,8.95
2022-10-17T12:55:13.178Z,9.18
2022-10-17T12:57:48.584Z,8.40
2022-10-17T13:00:28.105Z,16.90
2022-10-17T13:03:02.010Z,7.18
2022-10-17T13:05:32.790Z,8.35
2022-10-17T13:08:02.185Z,8.80
2022-10-17T13:10:32.345Z,5.65
2022-10-17T13:13:13.025Z,7.40
2022-10-17T13:15:39.696Z,7.15
2022-10-17T13:18:06.750Z,7.00
2022-10-17T13:20:33.584Z,11.70
2022-10-17T13:23:00.844Z,9.40
2022-10-17T13:25:28.708Z,4.88
2022-10-17T13:28:13.708Z,6.03
2022-10-17T13:30:49.278Z,9.75
2022-10-17T13:33:28.632Z,7.90
2022-10-17T13:36:00.549Z,11.18
2022-10-17T13:38:32.548Z,8.23
2022-10-17T13:41:11.057Z,8.25
2022-10-17T13:43:43.963Z,7.78
2022-10-17T13:46:36.956Z,8.32
2022-10-17T13:49:18.348Z,5.78
2022-10-17T13:51:48.037Z,8.55
2022-10-17T13:54:37.694Z,5.30
2022-10-17T13:57:25.752Z,6.28
2022-10-17T13:59:55.975Z,8.73
2022-10-17T14:02:28.620Z,8.63
2022-10-17T14:05:19.282Z,6.68
2022-10-17T14:08:11.799Z,5.45
2022-10-17T14:10:41.422Z,8.57
2022-10-17T14:13:19.166Z,4.43
2022-10-17T14:15:46.581Z,10.55
2022-10-17T14:18:22.269Z,5.65
2022-10-17T14:21:34.057Z,6.53
2022-10-17T14:23:43.610Z,5.13
2022-10-17T14:26:15.052Z,8.95
2022-10-17T14:31:25.574Z,5.30
2022-10-17T14:33:54.183Z,6.65
2022-10-17T14:36:31.107Z,8.60
2022-10-17T14:39:01.770Z,8.85
2022-10-17T14:41:47.848Z,9.45
2022-10-17T14:44:43.119Z,9.82
2022-10-17T14:47:42.169Z,7.50
2022-10-17T14:50:11.556Z,6.10
2022-10-17T14:55:24.660Z,8.10
2022-10-17T14:57:51.713Z,5.63
2022-10-17T15:00:21.120Z,5.63
2022-10-17T15:02:49.175Z,6.60
2022-10-17T15:05:16.490Z,7.00
2022-10-17T15:07:43.630Z,7.50
2022-10-17T15:10:28.404Z,6.68
2022-10-17T15:12:59.115Z,6.10
2022-10-17T15:15:30.402Z,6.07
2022-10-17T15:17:57.324Z,4.27
2022-10-17T15:20:27.174Z,6.30
2022-10-17T15:22:58.882Z,13.85
2022-10-17T15:25:26.727Z,8.27
2022-10-17T15:27:53.968Z,9.10
2022-10-17T15:30:29.907Z,8.82
2022-10-17T15:32:56.540Z,17.67
2022-10-17T15:35:23.412Z,11.30
2022-10-17T15:37:50.086Z,10.52
2022-10-17T15:40:18.112Z,11.23
2022-10-17T15:42:44.754Z,10.75
2022-10-17T15:45:12.873Z,10.02
2022-10-17T15:47:41.427Z,13.52
2022-10-17T15:50:11.720Z,10.00
2022-10-17T15:52:38.377Z,15.55
2022-10-17T15:55:05.484Z,10.10
2022-10-17T15:57:38.198Z,11.23
2022-10-17T16:00:16.662Z,15.85
2022-10-17T16:02:43.930Z,17.00
2022-10-17T16:05:16.735Z,18.88
2022-10-17T16:07:46.323Z,10.20
2022-10-17T16:10:14.234Z,16.23
2022-10-17T16:12:43.890Z,12.32
2022-10-17T16:15:16.925Z,13.20
2022-10-17T16:17:44.268Z,14.52
2022-10-17T16:20:12.555Z,21.33
2022-10-17T16:22:42.153Z,20.25
2022-10-17T16:25:21.512Z,18.92
2022-10-17T16:27:50.512Z,13.90
2022-10-17T16:30:17.646Z,14.93
2022-10-17T16:32:44.331Z,17.80
2022-10-17T16:35:17.584Z,18.58
2022-10-17T16:37:44.468Z,21.33
2022-10-17T16:40:11.858Z,13.82
2022-10-17T16:42:38.458Z,19.25
2022-10-17T16:45:05.657Z,13.13
2022-10-17T16:47:32.349Z,17.73
2022-10-17T16:49:58.947Z,23.30
2022-10-17T16:52:25.626Z,27.50
2022-10-17T16:54:52.225Z,27.55
2022-10-17T16:57:19.263Z,19.52
2022-10-17T16:59:45.844Z,15.52
2022-10-17T17:02:13.670Z,11.95
2022-10-17T17:04:41.822Z,14.13
2022-10-17T17:07:08.472Z,21.92
2022-10-17T17:09:35.130Z,15.60
2022-10-17T17:12:01.664Z,24.33
2022-10-17T17:14:28.306Z,14.65
2022-10-17T17:16:54.990Z,18.75
2022-10-17T17:19:21.720Z,16.60
2022-10-17T17:21:50.967Z,20.08
2022-10-17T17:24:21.510Z,24.15
2022-10-17T17:26:53.147Z,18.85
2022-10-17T17:29:20.584Z,24.90
2022-10-17T17:31:47.417Z,20.27
2022-10-17T17:34:17.954Z,22.88
2022-10-17T17:36:45.433Z,22.17
2022-10-17T17:39:15.001Z,27.95
2022-10-17T17:41:43.401Z,14.45
2022-10-17T17:44:15.583Z,18.58
2022-10-17T17:46:43.748Z,19.25
2022-10-17T17:49:11.588Z,24.60
2022-10-17T17:51:38.556Z,17.30
2022-10-17T17:54:05.393Z,17.05
2022-10-17T17:56:32.419Z,14.10
2022-10-17T17:59:01.743Z,18.70
2022-10-17T18:01:36.695Z,18.33
2022-10-17T18:04:05.177Z,20.88
2022-10-17T18:06:32.029Z,21.45
2022-10-17T18:08:59.520Z,23.70
2022-10-17T18:11:27.405Z,27.73
2022-10-17T18:13:59.571Z,23.65
2022-10-17T18:16:27.651Z,15.40
2022-10-17T18:18:54.358Z,20.90
2022-10-17T18:21:21.172Z,19.08
2022-10-17T18:23:48.887Z,20.48
2022-10-17T18:26:16.143Z,26.63
2022-10-17T18:28:43.975Z,23.50
2022-10-17T18:31:15.549Z,20.63
2022-10-17T18:33:44.619Z,20.83
2022-10-17T18:36:13.642Z,21.38
2022-10-17T18:38:40.301Z,22.25
2022-10-17T18:41:09.923Z,28.15
2022-10-17T18:43:38.243Z,22.88
2022-10-17T18:46:10.954Z,23.30
2022-10-17T18:48:42.113Z,26.35
2022-10-17T18:51:08.932Z,23.00
2022-10-17T18:53:39.943Z,23.13
2022-10-17T18:56:06.987Z,22.67
2022-10-17T18:58:33.662Z,24.92
2022-10-17T19:01:05.011Z,22.88
2022-10-17T19:03:32.364Z,22.00
2022-10-17T19:06:08.521Z,20.58
2022-10-17T19:08:36.782Z,24.63
2022-10-17T19:11:11.289Z,23.10
2022-10-17T19:13:38.081Z,20.88
2022-10-17T19:16:09.717Z,25.85
2022-10-17T19:18:37.491Z,25.77
2022-10-17T19:21:06.909Z,30.45
2022-10-17T19:23:35.949Z,23.55
2022-10-17T19:26:12.884Z,22.33
2022-10-17T19:28:42.170Z,23.02
2022-10-17T19:31:08.919Z,24.33
2022-10-17T19:33:35.945Z,20.33
2022-10-17T19:36:06.597Z,19.80
2022-10-17T19:38:34.083Z,24.42
2022-10-17T19:41:00.893Z,18.75
2022-10-17T19:43:27.488Z,27.17
2022-10-17T19:45:56.005Z,16.00
2022-10-17T19:48:23.091Z,23.58
2022-10-17T19:50:50.227Z,18.95
2022-10-17T19:53:17.798Z,20.75
2022-10-17T19:55:44.740Z,15.73
2022-10-17T19:58:12.129Z,18.45
2022-10-17T20:00:38.734Z,16.73
2022-10-17T20:03:05.301Z,16.52
2022-10-17T20:05:31.889Z,23.70
2022-10-17T20:07:58.516Z,20.20
2022-10-17T20:10:25.612Z,23.48
2022-10-17T20:12:52.195Z,20.90
2022-10-17T20:15:18.853Z,22.25
2022-10-17T20:17:45.484Z,28.60
2022-10-17T20:20:12.228Z,23.25
2022-10-17T20:22:38.896Z,22.90
2022-10-17T20:25:05.928Z,19.95
2022-10-17T20:27:32.757Z,28.13
2022-10-17T20:30:01.882Z,22.92
2022-10-17T20:32:30.996Z,18.52
2022-10-17T20:34:58.270Z,24.98
2022-10-17T20:37:25.399Z,21.38
2022-10-17T20:40:10.689Z,15.63
2022-10-17T20:42:38.793Z,17.48
2022-10-17T20:45:06.291Z,21.00
2022-10-17T20:47:45.027Z,19.17
2022-10-17T20:50:13.873Z,25.85
2022-10-17T20:52:40.461Z,22.17
2022-10-17T20:55:07.365Z,18.52
2022-10-17T20:57:33.917Z,20.73
2022-10-17T21:00:00.523Z,20.70
2022-10-17T21:02:27.119Z,28.77
2022-10-17T21:04:53.863Z,17.83
2022-10-17T21:07:22.230Z,27.25
2022-10-17T21:09:48.922Z,16.27
2022-10-17T21:12:25.765Z,19.80
2022-10-17T21:15:02.190Z,19.58
2022-10-17T21:17:28.805Z,21.75
2022-10-17T21:19:55.873Z,24.83
2022-10-17T21:22:22.509Z,26.10
2022-10-17T21:24:49.124Z,25.25
2022-10-17T21:27:18.125Z,29.77
2022-10-17T21:29:46.094Z,22.25
2022-10-17T21:32:25.171Z,25.75
2022-10-17T21:34:59.365Z,19.58
2022-10-17T21:37:26.000Z,24.33
2022-10-17T21:39:52.566Z,26.70
2022-10-17T21:42:22.721Z,17.92
2022-10-17T21:44:52.473Z,26.42
2022-10-17T21:47:23.252Z,29.05
2022-10-17T21:49:52.611Z,19.58
2022-10-17T21:52:20.607Z,22.92
2022-10-17T21:54:47.345Z,20.13
2022-10-17T21:59:48.135Z,20.35
2022-10-17T22:02:16.416Z,27.08
2022-10-17T22:04:46.750Z,20.42
2022-10-17T22:07:13.933Z,16.30
2022-10-17T22:09:41.719Z,23.42
2022-10-17T22:12:09.865Z,18.00
2022-10-17T22:14:38.824Z,17.42
2022-10-17T22:17:08.944Z,20.13
2022-10-17T22:19:36.680Z,22.65
2022-10-17T22:22:04.607Z,12.27
2022-10-17T22:24:32.421Z,14.48
2022-10-17T22:27:00.641Z,18.65
2022-10-17T22:29:28.720Z,13.70
2022-10-17T22:31:57.307Z,15.70
2022-10-17T22:34:23.836Z,22.55
2022-10-17T22:36:51.514Z,15.48
2022-10-17T22:39:19.688Z,17.83
2022-10-17T22:41:47.405Z,14.32
2022-10-17T22:44:14.008Z,20.38
2022-10-17T22:46:42.049Z,23.85
2022-10-17T22:49:10.078Z,21.90
2022-10-17T22:51:36.661Z,15.23
2022-10-17T22:54:04.373Z,19.30
2022-10-17T22:56:32.556Z,20.67
2022-10-17T22:59:00.446Z,14.15
2022-10-17T23:01:28.126Z,15.75
2022-10-17T23:03:56.130Z,15.63
2022-10-17T23:06:24.446Z,21.40
2022-10-17T23:08:52.339Z,16.13
2022-10-17T23:11:19.172Z,14.55
2022-10-17T23:13:47.291Z,16.63
2022-10-17T23:16:15.373Z,21.40
2022-10-17T23:18:44.207Z,18.10
2022-10-17T23:21:12.629Z,18.23
2022-10-17T23:23:39.324Z,18.75
2022-10-17T23:26:12.880Z,17.80
2022-10-17T23:28:41.973Z,19.73
2022-10-17T23:31:19.841Z,17.98
2022-10-17T23:33:50.039Z,15.98
2022-10-17T23:36:19.598Z,16.13
2022-10-17T23:38:48.632Z,12.93
2022-10-17T23:41:17.696Z,16.27
2022-10-17T23:43:44.713Z,14.98
2022-10-17T23:46:12.940Z,17.05
2022-10-17T23:48:41.225Z,14.30
2022-10-17T23:51:10.624Z,16.17
2022-10-17T23:53:39.057Z,17.13
2022-10-17T23:56:07.923Z,18.05
2022-10-17T23:58:36.337Z,19.58
